createdAt,value
2022-08-19T00:01:57.764Z,99043.75
2022-08-19T00:04:29.027Z,99037.34
2022-08-19T00:07:00.553Z,99045.88
2022-08-19T00:09:30.723Z,99044.97
2022-08-19T00:12:01.395Z,99042.28
2022-08-19T00:14:32.777Z,99039.19
2022-08-19T00:17:02.041Z,99038.69
2022-08-19T00:19:30.812Z,99047.87
2022-08-19T00:22:02.895Z,99045.09
2022-08-19T00:24:32.837Z,99041.69
2022-08-19T00:27:25.960Z,99041.37
2022-08-19T00:29:54.410Z,99035.22
2022-08-19T00:32:33.004Z,99040.00
2022-08-19T00:35:02.789Z,99049.31
2022-08-19T00:37:44.186Z,99045.34
2022-08-19T00:40:14.937Z,99045.03
2022-08-19T00:42:44.075Z,99046.13
2022-08-19T00:45:18.183Z,99047.78
2022-08-19T00:47:46.960Z,99040.19
2022-08-19T00:50:16.286Z,99039.25
2022-08-19T00:52:46.555Z,99027.13
2022-08-19T00:55:19.669Z,99028.44
2022-08-19T00:57:49.667Z,99038.63
2022-08-19T01:00:20.523Z,99033.19
2022-08-19T01:02:49.206Z,99043.84
2022-08-19T01:05:21.781Z,99031.19
2022-08-19T01:07:51.575Z,99026.16
2022-08-19T01:10:24.418Z,99024.28
2022-08-19T01:12:53.685Z,99024.75
2022-08-19T01:15:26.941Z,99021.53
2022-08-19T01:17:55.651Z,99019.91
2022-08-19T01:20:25.612Z,99019.97
2022-08-19T01:22:56.040Z,99028.78
2022-08-19T01:25:25.599Z,99025.69
2022-08-19T01:27:54.887Z,99022.31
2022-08-19T01:30:25.384Z,99018.66
2022-08-19T01:32:54.869Z,99017.13
2022-08-19T01:35:24.644Z,99015.22
2022-08-19T01:37:58.410Z,99014.53
2022-08-19T01:40:31.810Z,99006.59
2022-08-19T01:43:00.618Z,99009.59
2022-08-19T01:45:33.931Z,99006.34
2022-08-19T01:48:02.734Z,98990.19
2022-08-19T01:50:32.056Z,98992.94
2022-08-19T01:53:09.088Z,98987.03
2022-08-19T01:55:43.767Z,98979.41
2022-08-19T01:58:21.499Z,98980.50
2022-08-19T02:00:57.607Z,98976.56
2022-08-19T02:03:26.226Z,98974.97
2022-08-19T02:06:01.213Z,98958.78
2022-08-19T02:08:29.835Z,98964.84
2022-08-19T02:11:00.138Z,98966.63
2022-08-19T02:13:28.618Z,98970.25
2022-08-19T02:15:57.557Z,98972.69
2022-08-19T02:18:28.602Z,98975.22
2022-08-19T02:20:57.673Z,98969.22
2022-08-19T02:23:28.910Z,98969.34
2022-08-19T02:25:59.774Z,98953.31
2022-08-19T02:28:33.375Z,98940.75
2022-08-19T02:31:06.418Z,98946.25
2022-08-19T02:33:34.765Z,98949.87
2022-08-19T02:36:07.905Z,98956.87
2022-08-19T02:38:35.766Z,98971.19
2022-08-19T02:41:07.049Z,98968.56
2022-08-19T02:43:37.987Z,98957.66
2022-08-19T02:46:13.436Z,98965.94
2022-08-19T02:48:41.769Z,98974.78
2022-08-19T02:51:10.890Z,98966.88
2022-08-19T02:53:43.398Z,98970.94
2022-08-19T02:56:12.302Z,98983.34
2022-08-19T02:58:42.078Z,98990.78
2022-08-19T03:01:17.000Z,98985.13
2022-08-19T03:03:45.509Z,98978.81
2022-08-19T03:06:17.747Z,98977.75
2022-08-19T03:08:46.760Z,98981.66
2022-08-19T03:11:16.465Z,98987.13
2022-08-19T03:13:46.152Z,98990.47
2022-08-19T03:16:19.300Z,98995.78
2022-08-19T03:18:47.647Z,99001.09
2022-08-19T03:21:20.580Z,99000.56
2022-08-19T03:23:49.096Z,98996.75
2022-08-19T03:26:23.400Z,99001.59
2022-08-19T03:28:58.310Z,99002.06
2022-08-19T03:31:43.730Z,99005.56
2022-08-19T03:34:28.206Z,99004.41
2022-08-19T03:36:56.999Z,99007.81
2022-08-19T03:39:26.677Z,99004.22
2022-08-19T03:42:32.154Z,99003.88
2022-08-19T03:44:55.433Z,99015.22
2022-08-19T03:47:25.099Z,99014.50
2022-08-19T03:49:56.826Z,99017.37
2022-08-19T03:52:25.121Z,99026.19
2022-08-19T03:54:58.031Z,99025.47
2022-08-19T03:57:31.934Z,99020.41
2022-08-19T04:00:12.789Z,99016.75
2022-08-19T04:02:58.608Z,99020.41
2022-08-19T04:05:31.188Z,99021.66
2022-08-19T04:08:00.280Z,99028.69
2022-08-19T04:10:31.500Z,99031.81
2022-08-19T04:13:08.199Z,99043.88
2022-08-19T04:15:44.179Z,99044.88
2022-08-19T04:18:15.605Z,99046.56
2022-08-19T04:20:51.640Z,99034.78
2022-08-19T04:23:22.872Z,99040.91
2022-08-19T04:25:51.584Z,99038.41
2022-08-19T04:28:20.183Z,99042.88
2022-08-19T04:30:50.183Z,99045.28
2022-08-19T04:33:26.717Z,99045.53
2022-08-19T04:36:01.660Z,99047.66
2022-08-19T04:38:30.070Z,99040.25
2022-08-19T04:41:21.008Z,99042.53
2022-08-19T04:43:49.868Z,99049.94
2022-08-19T04:46:40.582Z,99048.00
2022-08-19T04:49:13.895Z,99045.97
2022-08-19T04:51:48.253Z,99049.31
2022-08-19T04:54:28.781Z,99042.56
2022-08-19T04:57:10.970Z,99059.06
2022-08-19T04:59:40.158Z,99054.53
2022-08-19T05:02:10.330Z,99055.34
2022-08-19T05:04:40.654Z,99055.66
2022-08-19T05:07:14.179Z,99054.56
2022-08-19T05:09:57.681Z,99053.38
2022-08-19T05:12:29.239Z,99055.34
2022-08-19T05:14:59.102Z,99056.63
2022-08-19T05:17:31.033Z,99050.03
2022-08-19T05:20:26.617Z,99050.03
2022-08-19T05:22:55.563Z,99053.00
2022-08-19T05:25:25.634Z,99057.84
2022-08-19T05:27:53.964Z,99059.16
2022-08-19T05:30:37.601Z,99055.56
2022-08-19T05:33:14.458Z,99052.53
2022-08-19T05:35:53.582Z,99067.16
2022-08-19T05:38:22.069Z,99060.34
2022-08-19T05:40:51.813Z,99064.88
2022-08-19T05:43:20.156Z,99062.19
2022-08-19T05:45:52.142Z,99063.28
2022-08-19T05:48:21.506Z,99062.22
2022-08-19T05:50:59.637Z,99063.09
2022-08-19T05:53:28.670Z,99059.16
2022-08-19T05:55:57.302Z,99065.28
2022-08-19T05:58:28.139Z,99064.06
2022-08-19T06:01:05.303Z,99063.28
2022-08-19T06:03:40.589Z,99061.06
2022-08-19T06:06:13.521Z,99051.69
2022-08-19T06:08:51.068Z,99061.69
2022-08-19T06:11:34.896Z,99050.53
2022-08-19T06:14:06.038Z,99047.63
2022-08-19T06:16:36.489Z,99049.31
2022-08-19T06:19:07.894Z,99050.09
2022-08-19T06:21:38.989Z,99049.47
2022-08-19T06:24:12.237Z,99045.22
2022-08-19T06:26:49.901Z,99041.63
2022-08-19T06:29:24.039Z,99039.69
2022-08-19T06:31:57.198Z,99040.72
2022-08-19T06:34:26.214Z,99042.47
2022-08-19T06:37:00.343Z,99037.09
2022-08-19T06:39:32.869Z,99034.00
2022-08-19T06:42:02.142Z,99019.31
2022-08-19T06:44:42.352Z,99028.06
2022-08-19T06:47:23.860Z,99027.25
2022-08-19T06:50:05.218Z,99035.19
2022-08-19T06:52:38.357Z,99048.78
2022-08-19T06:55:09.960Z,99051.94
2022-08-19T06:57:39.283Z,99057.34
2022-08-19T07:00:14.592Z,99067.16
2022-08-19T07:02:54.325Z,99070.97
2022-08-19T07:05:27.391Z,99076.03
2022-08-19T07:08:04.600Z,99079.06
2022-08-19T07:10:36.083Z,99079.78
2022-08-19T07:13:11.075Z,99075.31
2022-08-19T07:15:39.774Z,99080.38
2022-08-19T07:18:17.184Z,99078.34
2022-08-19T07:20:45.536Z,99084.84
2022-08-19T07:23:16.179Z,99087.44
2022-08-19T07:25:45.309Z,99092.72
2022-08-19T07:28:24.930Z,99088.72
2022-08-19T07:31:02.696Z,99079.81
2022-08-19T07:33:33.602Z,99087.41
2022-08-19T07:36:03.805Z,99084.47
2022-08-19T07:39:03.432Z,99083.25
2022-08-19T07:41:33.086Z,99076.06
2022-08-19T07:44:08.315Z,99081.09
2022-08-19T07:46:38.313Z,99078.56
2022-08-19T07:49:09.069Z,99074.72
2022-08-19T07:51:37.559Z,99080.94
2022-08-19T07:54:07.488Z,99082.44
2022-08-19T07:56:36.093Z,99082.78
2022-08-19T07:59:10.174Z,99086.81
2022-08-19T08:01:41.933Z,99087.22
2022-08-19T08:04:33.523Z,99090.78
2022-08-19T08:07:19.202Z,99082.94
2022-08-19T08:13:08.799Z,99080.41
2022-08-19T08:15:42.746Z,99085.31
2022-08-19T08:18:11.838Z,99083.66
2022-08-19T08:20:47.635Z,99090.41
2022-08-19T08:23:34.194Z,99083.56
2022-08-19T08:26:05.729Z,99089.84
2022-08-19T08:28:39.722Z,99081.38
2022-08-19T08:31:14.431Z,99082.44
2022-08-19T08:33:43.356Z,99074.81
2022-08-19T08:36:12.653Z,99077.16
2022-08-19T08:38:46.391Z,99078.25
2022-08-19T08:41:20.879Z,99067.19
2022-08-19T08:43:54.345Z,99051.34
2022-08-19T08:46:31.702Z,99046.06
2022-08-19T08:49:04.759Z,99046.22
2022-08-19T08:51:36.061Z,99066.28
2022-08-19T08:54:10.346Z,99076.00
2022-08-19T08:56:45.220Z,99070.06
2022-08-19T08:59:18.146Z,99062.53
2022-08-19T09:01:47.194Z,99064.13
2022-08-19T09:04:15.569Z,99052.81
2022-08-19T09:06:52.780Z,99058.88
2022-08-19T09:09:24.539Z,99058.47
2022-08-19T09:11:58.987Z,99053.75
2022-08-19T09:14:52.288Z,99052.25
2022-08-19T09:17:37.616Z,99046.81
2022-08-19T09:20:09.774Z,99046.97
2022-08-19T09:22:38.594Z,99042.88
2022-08-19T09:25:07.688Z,99035.16
2022-08-19T09:27:42.336Z,99032.13
2022-08-19T09:30:18.278Z,99029.25
2022-08-19T09:32:52.968Z,99034.81
2022-08-19T09:35:25.551Z,99033.41
2022-08-19T09:38:00.258Z,99038.53
2022-08-19T09:40:37.711Z,99038.63
2022-08-19T09:43:10.247Z,99028.53
2022-08-19T09:45:43.853Z,99033.97
2022-08-19T09:48:19.074Z,99025.13
2022-08-19T09:50:58.131Z,99018.87
2022-08-19T09:53:30.350Z,99015.16
2022-08-19T09:56:00.236Z,99016.34
2022-08-19T09:58:33.044Z,99014.47
2022-08-19T10:01:03.735Z,99012.25
2022-08-19T10:03:39.403Z,99016.66
2022-08-19T10:06:14.971Z,99012.78
2022-08-19T10:08:50.000Z,99009.16
2022-08-19T10:11:28.672Z,99012.63
2022-08-19T10:14:10.600Z,98997.50
2022-08-19T10:16:45.643Z,99002.25
2022-08-19T10:19:16.310Z,99001.38
2022-08-19T10:21:55.732Z,99001.47
2022-08-19T10:24:34.695Z,98993.03
2022-08-19T10:27:09.897Z,98989.03
2022-08-19T10:29:46.478Z,98995.81
2022-08-19T10:32:19.260Z,98992.22
2022-08-19T10:35:02.772Z,98999.84
2022-08-19T10:37:37.909Z,98999.75
2022-08-19T10:40:19.918Z,99001.50
2022-08-19T10:42:48.365Z,98994.25
2022-08-19T10:45:19.061Z,98992.38
2022-08-19T10:47:49.322Z,98996.94
2022-08-19T10:50:34.775Z,98992.56
2022-08-19T10:53:08.161Z,98992.78
2022-08-19T10:55:56.106Z,98999.66
2022-08-19T10:58:26.733Z,98997.38
2022-08-19T11:00:55.930Z,98991.94
2022-08-19T11:03:30.858Z,98991.06
2022-08-19T11:05:59.954Z,98992.28
2022-08-19T11:08:30.142Z,99001.91
2022-08-19T11:11:01.661Z,98994.34
2022-08-19T11:13:34.522Z,99000.72
2022-08-19T11:16:07.371Z,98993.28
2022-08-19T11:18:41.464Z,98996.59
2022-08-19T11:21:15.753Z,98998.62
2022-08-19T11:23:44.641Z,99002.22
2022-08-19T11:26:14.729Z,99000.47
2022-08-19T11:28:43.649Z,98998.16
2022-08-19T11:31:21.316Z,98998.69
2022-08-19T11:33:53.497Z,99001.97
2022-08-19T11:36:27.793Z,99003.28
2022-08-19T11:39:02.443Z,99005.03
2022-08-19T11:41:31.066Z,99000.25
2022-08-19T11:44:02.956Z,98999.41
2022-08-19T11:46:34.875Z,98990.94
2022-08-19T11:49:13.818Z,98994.91
2022-08-19T11:51:50.857Z,98982.97
2022-08-19T11:54:19.465Z,98977.31
2022-08-19T11:56:50.093Z,98981.94
2022-08-19T11:59:18.541Z,98980.28
2022-08-19T12:01:50.865Z,98981.63
2022-08-19T12:04:20.836Z,98984.34
2022-08-19T12:06:51.058Z,98988.53
2022-08-19T12:09:19.844Z,98981.00
2022-08-19T12:11:49.946Z,98979.37
2022-08-19T12:14:19.665Z,98985.63
2022-08-19T12:16:53.737Z,98982.16
2022-08-19T12:19:25.628Z,98991.50
2022-08-19T12:21:56.468Z,98992.12
2022-08-19T12:24:26.068Z,98978.50
2022-08-19T12:27:03.226Z,98980.03
2022-08-19T12:29:32.070Z,98979.87
2022-08-19T12:32:08.701Z,98977.94
2022-08-19T12:34:42.379Z,98975.72
2022-08-19T12:37:11.976Z,98968.03
2022-08-19T12:39:42.397Z,98960.66
2022-08-19T12:42:11.356Z,98962.22
2022-08-19T12:44:41.601Z,98954.84
2022-08-19T12:47:15.702Z,98959.91
2022-08-19T12:49:53.507Z,98957.47
2022-08-19T12:52:25.065Z,98952.97
2022-08-19T12:54:55.434Z,98949.91
2022-08-19T12:57:32.245Z,98944.84
2022-08-19T13:00:04.672Z,98943.41
2022-08-19T13:02:39.261Z,98951.44
2022-08-19T13:05:17.950Z,98944.34
2022-08-19T13:07:46.836Z,98943.41
2022-08-19T13:10:18.209Z,98943.09
2022-08-19T13:12:48.593Z,98947.34
2022-08-19T13:15:23.679Z,98943.16
2022-08-19T13:17:58.702Z,98936.53
2022-08-19T13:20:28.642Z,98936.38
2022-08-19T13:22:58.286Z,98935.75
2022-08-19T13:25:27.628Z,98929.06
2022-08-19T13:27:59.972Z,98933.06
2022-08-19T13:30:45.820Z,98933.28
2022-08-19T13:33:16.153Z,98934.03
2022-08-19T13:35:47.980Z,98943.25
2022-08-19T13:38:17.438Z,98953.06
2022-08-19T13:40:47.318Z,98959.97
2022-08-19T13:43:22.556Z,98957.06
2022-08-19T13:45:57.712Z,98964.66
2022-08-19T13:48:29.559Z,98969.69
2022-08-19T13:50:59.593Z,98968.44
2022-08-19T13:53:30.897Z,98975.19
2022-08-19T13:55:59.872Z,98974.81
2022-08-19T13:58:34.230Z,98986.28
2022-08-19T14:01:04.982Z,98982.44
2022-08-19T14:03:34.202Z,98990.50
2022-08-19T14:06:04.257Z,98968.34
2022-08-19T14:08:33.383Z,98968.53
2022-08-19T14:11:06.712Z,98969.66
2022-08-19T14:13:36.473Z,98967.59
2022-08-19T14:16:08.643Z,98976.28
2022-08-19T14:18:38.538Z,98966.16
2022-08-19T14:21:08.830Z,98977.69
2022-08-19T14:23:40.203Z,98958.41
2022-08-19T14:26:09.568Z,98955.97
2022-08-19T14:28:43.010Z,98960.28
2022-08-19T14:31:11.893Z,98964.75
2022-08-19T14:33:43.369Z,98957.16
2022-08-19T14:36:13.321Z,98953.56
2022-08-19T14:38:44.466Z,98955.97
2022-08-19T14:41:17.633Z,98959.53
2022-08-19T14:43:47.764Z,98976.88
2022-08-19T14:46:16.993Z,98982.19
2022-08-19T14:48:45.736Z,98968.12
2022-08-19T14:51:16.366Z,98967.16
2022-08-19T14:53:51.428Z,98976.59
2022-08-19T14:56:20.820Z,98976.88
2022-08-19T14:58:54.160Z,98967.16
2022-08-19T15:01:25.148Z,98972.34
2022-08-19T15:03:55.043Z,98976.41
2022-08-19T15:06:27.016Z,98977.69
2022-08-19T15:09:03.342Z,98989.66
2022-08-19T15:11:35.529Z,98986.22
2022-08-19T15:14:04.164Z,98994.09
2022-08-19T15:16:41.882Z,99004.88
2022-08-19T15:19:13.728Z,99015.81
2022-08-19T15:21:44.045Z,99029.41
2022-08-19T15:24:13.590Z,99032.34
2022-08-19T15:26:43.723Z,99029.56
2022-08-19T15:29:15.511Z,99044.12
2022-08-19T15:31:47.526Z,99050.03
2022-08-19T15:34:23.763Z,99038.53
2022-08-19T15:36:53.790Z,99023.25
2022-08-19T15:39:22.882Z,99020.28
2022-08-19T15:41:51.224Z,98990.44
2022-08-19T15:44:25.827Z,98975.78
2022-08-19T15:46:54.179Z,98978.53
2022-08-19T15:49:26.234Z,98984.59
2022-08-19T15:52:08.921Z,98971.28
2022-08-19T15:54:37.515Z,98961.81
2022-08-19T15:57:32.901Z,98957.75
2022-08-19T16:00:19.063Z,98961.66
2022-08-19T16:03:05.413Z,98955.47
2022-08-19T16:05:59.078Z,98951.94
2022-08-19T16:08:32.451Z,98947.56
2022-08-19T16:11:20.076Z,98938.88
2022-08-19T16:13:55.019Z,98941.81
2022-08-19T16:16:34.069Z,98940.47
2022-08-19T16:19:03.796Z,98943.91
2022-08-19T16:21:41.820Z,98955.56
2022-08-19T16:24:16.287Z,98963.87
2022-08-19T16:26:44.760Z,98967.88
2022-08-19T16:29:14.632Z,98967.66
2022-08-19T16:31:58.002Z,98972.34
2022-08-19T16:34:26.954Z,98986.31
2022-08-19T16:36:56.428Z,99021.88
2022-08-19T16:39:27.345Z,99027.06
2022-08-19T16:41:56.255Z,99040.56
2022-08-19T16:44:25.321Z,99057.94
2022-08-19T16:47:02.392Z,99067.53
2022-08-19T16:49:54.573Z,99070.72
2022-08-19T16:52:21.510Z,99085.78
2022-08-19T16:54:53.997Z,99076.09
2022-08-19T16:57:27.469Z,99074.03
2022-08-19T16:59:55.785Z,99086.81
2022-08-19T17:02:25.644Z,99087.97
2022-08-19T17:04:59.245Z,99112.16
2022-08-19T17:07:33.204Z,99099.09
2022-08-19T17:10:06.212Z,99065.91
2022-08-19T17:12:38.810Z,99037.12
2022-08-19T17:15:12.011Z,98997.00
2022-08-19T17:17:40.618Z,98956.50
2022-08-19T17:20:18.345Z,98946.25
2022-08-19T17:22:46.958Z,98944.09
2022-08-19T17:25:16.652Z,98924.16
2022-08-19T17:27:45.018Z,98912.66
2022-08-19T17:30:15.127Z,98890.25
2022-08-19T17:32:44.477Z,98876.66
2022-08-19T17:35:24.026Z,98857.31
2022-08-19T17:37:53.469Z,98853.50
2022-08-19T17:40:29.152Z,98845.78
2022-08-19T17:43:07.934Z,98856.50
2022-08-19T17:45:36.299Z,98860.78
2022-08-19T17:48:07.266Z,98853.81
2022-08-19T17:50:45.595Z,98859.81
2022-08-19T17:53:16.481Z,98864.56
2022-08-19T17:55:48.435Z,98872.19
2022-08-19T17:58:19.403Z,98875.53
2022-08-19T18:00:53.493Z,98903.56
2022-08-19T18:03:30.549Z,98931.47
2022-08-19T18:05:58.888Z,99003.25
2022-08-19T18:08:30.891Z,99066.00
2022-08-19T18:11:00.558Z,99086.63
2022-08-19T18:13:36.451Z,99092.19
2022-08-19T18:16:05.522Z,99067.31
2022-08-19T18:18:34.730Z,99049.06
2022-08-19T18:21:03.139Z,99059.31
2022-08-19T18:23:44.528Z,99088.13
2022-08-19T18:26:23.980Z,99129.50
2022-08-19T18:28:52.801Z,99157.63
2022-08-19T18:31:26.288Z,99221.25
2022-08-19T18:33:56.800Z,99267.47
2022-08-19T18:36:52.438Z,99245.56
2022-08-19T18:39:50.124Z,99242.09
2022-08-19T18:42:38.288Z,99235.38
2022-08-19T18:45:24.817Z,99261.75
2022-08-19T18:48:27.046Z,99272.50
2022-08-19T18:51:00.213Z,99274.91
2022-08-19T18:53:32.459Z,99274.22
2022-08-19T18:56:05.660Z,99236.84
2022-08-19T18:58:35.782Z,99236.38
2022-08-19T19:01:11.141Z,99206.00
2022-08-19T19:03:46.295Z,99185.84
2022-08-19T19:06:15.208Z,99162.09
2022-08-19T19:08:53.763Z,99119.91
2022-08-19T19:11:31.485Z,99102.41
2022-08-19T19:14:03.132Z,99087.84
2022-08-19T19:16:32.648Z,99122.72
2022-08-19T19:19:01.387Z,99157.44
2022-08-19T19:21:34.420Z,99160.91
2022-08-19T19:24:03.500Z,99118.50
2022-08-19T19:26:35.718Z,99045.38
2022-08-19T19:29:06.149Z,99028.66
2022-08-19T19:31:37.654Z,99049.63
2022-08-19T19:34:06.318Z,99059.47
2022-08-19T19:37:01.390Z,99050.09
2022-08-19T19:39:44.814Z,99046.72
2022-08-19T19:42:20.547Z,99026.56
2022-08-19T19:44:56.201Z,99017.50
2022-08-19T19:47:27.609Z,99018.97
2022-08-19T19:50:15.304Z,99023.28
2022-08-19T19:52:52.664Z,99034.88
2022-08-19T19:55:21.401Z,99021.75
2022-08-19T19:57:55.377Z,99029.31
2022-08-19T20:00:26.243Z,99042.19
2022-08-19T20:02:56.218Z,99043.44
2022-08-19T20:05:25.062Z,99066.31
2022-08-19T20:08:19.512Z,99278.78
2022-08-19T20:10:48.157Z,99270.25
2022-08-19T20:13:17.051Z,99250.66
2022-08-19T20:15:49.589Z,99291.44
2022-08-19T20:18:23.167Z,99317.66
2022-08-19T20:20:51.748Z,99332.09
2022-08-19T20:23:22.552Z,99333.81
2022-08-19T20:25:51.313Z,99331.06
2022-08-19T20:28:23.266Z,99342.31
2022-08-19T20:30:53.989Z,99348.44
2022-08-19T20:33:27.732Z,99335.63
2022-08-19T20:35:56.064Z,99345.56
2022-08-19T20:38:42.663Z,99366.09
2022-08-19T20:41:12.171Z,99379.75
2022-08-19T20:43:40.937Z,99381.97
2022-08-19T20:46:13.114Z,99384.09
2022-08-19T20:48:42.868Z,99381.53
2022-08-19T20:51:14.747Z,99379.94
2022-08-19T20:53:43.484Z,99386.91
2022-08-19T20:56:20.709Z,99384.91
2022-08-19T20:58:53.449Z,99377.69
2022-08-19T21:01:25.321Z,99372.22
2022-08-19T21:03:59.923Z,99359.81
2022-08-19T21:06:28.542Z,99351.94
2022-08-19T21:08:58.423Z,99347.09
2022-08-19T21:11:27.114Z,99348.91
2022-08-19T21:14:01.504Z,99353.63
2022-08-19T21:16:32.653Z,99344.78
2022-08-19T21:19:04.899Z,99322.69
2022-08-19T21:21:35.027Z,99307.09
2022-08-19T21:24:04.440Z,99273.41
2022-08-19T21:26:32.788Z,99249.56
2022-08-19T21:29:04.522Z,99201.34
2022-08-19T21:31:34.211Z,99186.22
2022-08-19T21:34:05.387Z,99188.75
2022-08-19T21:36:33.716Z,99193.31
2022-08-19T21:39:06.099Z,99181.91
2022-08-19T21:41:34.926Z,99176.44
2022-08-19T21:44:03.657Z,99171.09
2022-08-19T21:46:33.953Z,99183.81
2022-08-19T21:49:02.931Z,99166.75
2022-08-19T21:51:32.882Z,99119.97
2022-08-19T21:54:01.243Z,99118.19
2022-08-19T21:56:32.695Z,99115.19
2022-08-19T21:59:01.029Z,99109.91
2022-08-19T22:01:33.146Z,99121.94
2022-08-19T22:04:03.114Z,99120.75
2022-08-19T22:06:35.130Z,99112.44
2022-08-19T22:09:03.840Z,99080.75
2022-08-19T22:11:33.047Z,99071.34
2022-08-19T22:14:03.915Z,99061.13
2022-08-19T22:16:41.566Z,99072.22
2022-08-19T22:19:13.364Z,99045.00
2022-08-19T22:21:45.555Z,99049.34
2022-08-19T22:24:16.349Z,99065.00
2022-08-19T22:26:50.827Z,99065.84
2022-08-19T22:29:33.572Z,99054.38
2022-08-19T22:32:26.339Z,99062.72
2022-08-19T22:34:57.802Z,99066.31
2022-08-19T22:37:31.836Z,99057.88
2022-08-19T22:40:00.973Z,99046.31
2022-08-19T22:42:32.442Z,99040.16
2022-08-19T22:45:01.705Z,99035.22
2022-08-19T22:47:32.064Z,99038.59
2022-08-19T22:50:03.886Z,99037.38
2022-08-19T22:52:32.318Z,99014.81
2022-08-19T22:55:01.534Z,99006.00
2022-08-19T22:57:31.462Z,98981.53
2022-08-19T23:00:02.512Z,99007.31
2022-08-19T23:02:32.885Z,99005.72
2022-08-19T23:05:05.715Z,98996.66
2022-08-19T23:07:39.972Z,98996.22
2022-08-19T23:10:10.443Z,99003.78
2022-08-19T23:12:39.898Z,99008.00
2022-08-19T23:15:10.206Z,99006.81
2022-08-19T23:17:42.929Z,99011.75
2022-08-19T23:20:17.061Z,99008.09
2022-08-19T23:22:49.684Z,99010.28
2022-08-19T23:25:25.003Z,99012.94
2022-08-19T23:28:10.850Z,99018.81
2022-08-19T23:30:45.355Z,99013.16
2022-08-19T23:33:21.471Z,99006.28
2022-08-19T23:35:53.210Z,99006.66
2022-08-19T23:38:22.736Z,98989.59
2022-08-19T23:40:53.678Z,98989.88
2022-08-19T23:43:24.238Z,98984.06
2022-08-19T23:45:57.401Z,98990.06
2022-08-19T23:48:26.176Z,98995.28
2022-08-19T23:51:08.248Z,98982.59
2022-08-19T23:53:37.177Z,98983.91
2022-08-19T23:56:07.246Z,98991.75
2022-08-19T23:58:37.476Z,98985.47
